createdAt,value
2019-03-24T00:00:08.837Z,17.20
2019-03-24T00:02:37.627Z,17.20
2019-03-24T00:05:06.456Z,17.30
2019-03-24T00:07:35.103Z,17.30
2019-03-24T00:10:05.369Z,17.40
2019-03-24T00:12:34.832Z,17.30
2019-03-24T00:15:05.943Z,17.20
2019-03-24T00:17:35.526Z,17.10
2019-03-24T00:20:05.599Z,16.90
2019-03-24T00:22:35.154Z,16.70
2019-03-24T00:25:04.941Z,16.50
2019-03-24T00:27:34.216Z,16.40
2019-03-24T00:30:03.285Z,16.30
2019-03-24T00:32:32.736Z,16.20
2019-03-24T00:35:02.057Z,16.00
2019-03-24T00:37:35.764Z,15.90
2019-03-24T00:40:08.413Z,15.80
2019-03-24T00:42:37.051Z,15.70
2019-03-24T00:45:09.622Z,15.60
2019-03-24T00:47:38.268Z,15.60
2019-03-24T00:50:07.111Z,15.60
2019-03-24T00:52:35.882Z,15.50
2019-03-24T00:55:06.326Z,15.50
2019-03-24T00:57:37.489Z,15.40
2019-03-24T01:00:10.615Z,15.30
2019-03-24T01:02:39.349Z,15.20
2019-03-24T01:05:09.130Z,15.10
2019-03-24T01:07:37.930Z,15.00
2019-03-24T01:10:10.651Z,15.00
2019-03-24T01:12:40.129Z,14.80
2019-03-24T01:15:09.225Z,14.70
2019-03-24T01:17:38.751Z,14.70
2019-03-24T01:20:08.182Z,14.70
2019-03-24T01:22:37.094Z,14.70
2019-03-24T01:25:07.596Z,14.70
2019-03-24T01:27:36.231Z,14.60
2019-03-24T01:30:07.313Z,14.60
2019-03-24T01:32:36.092Z,14.60
2019-03-24T01:35:05.933Z,14.50
2019-03-24T01:37:34.599Z,14.40
2019-03-24T01:40:03.340Z,14.30
2019-03-24T01:42:32.227Z,14.20
2019-03-24T01:45:00.999Z,14.20
2019-03-24T01:47:29.662Z,14.10
2019-03-24T01:49:59.037Z,14.10
2019-03-24T01:52:28.160Z,14.00
2019-03-24T01:54:57.374Z,13.90
2019-03-24T01:57:26.521Z,13.90
2019-03-24T01:59:56.081Z,13.80
2019-03-24T02:02:25.933Z,13.80
2019-03-24T02:04:54.600Z,13.70
2019-03-24T02:07:23.296Z,13.60
2019-03-24T02:09:52.052Z,13.60
2019-03-24T02:12:20.694Z,13.50
2019-03-24T02:14:49.720Z,13.50
2019-03-24T02:17:18.355Z,13.40
2019-03-24T02:19:47.132Z,13.30
2019-03-24T02:22:16.199Z,13.20
2019-03-24T02:24:45.044Z,13.20
2019-03-24T02:27:13.852Z,13.10
2019-03-24T02:29:43.138Z,13.10
2019-03-24T02:32:12.179Z,13.00
2019-03-24T02:34:40.853Z,12.90
2019-03-24T02:37:09.538Z,12.80
2019-03-24T02:39:38.647Z,12.70
2019-03-24T02:42:08.342Z,12.60
2019-03-24T02:44:38.007Z,12.50
2019-03-24T02:47:06.845Z,12.40
2019-03-24T02:49:36.208Z,12.20
2019-03-24T02:52:05.324Z,12.10
2019-03-24T02:54:34.749Z,12.00
2019-03-24T02:57:03.446Z,11.80
2019-03-24T02:59:32.070Z,11.80
2019-03-24T03:02:01.224Z,11.60
2019-03-24T03:04:30.064Z,11.50
2019-03-24T03:06:58.730Z,11.40
2019-03-24T03:09:28.055Z,11.30
2019-03-24T03:11:57.147Z,11.10
2019-03-24T03:14:26.398Z,11.00
2019-03-24T03:16:55.916Z,11.00
2019-03-24T03:19:25.097Z,10.90
2019-03-24T03:21:55.514Z,10.70
2019-03-24T03:24:25.124Z,10.60
2019-03-24T03:26:54.316Z,10.50
2019-03-24T03:29:23.529Z,10.40
2019-03-24T03:31:52.477Z,10.40
2019-03-24T03:34:22.039Z,10.30
2019-03-24T03:36:51.365Z,10.20
2019-03-24T03:39:20.291Z,10.10
2019-03-24T03:41:49.132Z,10.00
2019-03-24T03:44:18.414Z,10.00
2019-03-24T03:46:53.022Z,10.00
2019-03-24T03:49:19.312Z,10.00
2019-03-24T03:51:48.774Z,9.90
2019-03-24T03:54:18.533Z,9.80
2019-03-24T03:56:47.804Z,9.80
2019-03-24T03:59:16.806Z,9.70
2019-03-24T04:01:45.898Z,9.70
2019-03-24T04:04:15.340Z,9.60
2019-03-24T04:06:44.782Z,9.60
2019-03-24T04:09:13.913Z,9.70
2019-03-24T04:11:43.109Z,9.60
2019-03-24T04:14:12.394Z,9.50
2019-03-24T04:16:41.534Z,9.40
2019-03-24T04:19:13.036Z,9.40
2019-03-24T04:21:41.837Z,9.30
2019-03-24T04:24:11.445Z,9.30
2019-03-24T04:26:40.237Z,9.30
2019-03-24T04:29:09.111Z,9.30
2019-03-24T04:31:37.835Z,9.40
2019-03-24T04:34:07.779Z,9.20
2019-03-24T04:36:37.344Z,9.20
2019-03-24T04:39:06.842Z,9.30
2019-03-24T04:41:35.474Z,9.40
2019-03-24T04:44:04.909Z,9.30
2019-03-24T04:46:34.481Z,9.40
2019-03-24T04:49:04.768Z,9.40
2019-03-24T04:51:33.574Z,9.50
2019-03-24T04:54:02.381Z,9.50
2019-03-24T04:56:31.114Z,9.70
2019-03-24T04:59:00.303Z,9.50
2019-03-24T05:01:29.515Z,9.60
2019-03-24T05:04:00.525Z,9.60
2019-03-24T05:06:29.705Z,9.60
2019-03-24T05:08:59.222Z,9.60
2019-03-24T05:11:28.117Z,9.70
2019-03-24T05:13:57.109Z,9.60
2019-03-24T05:16:25.883Z,9.70
2019-03-24T05:18:54.534Z,9.70
2019-03-24T05:21:24.571Z,9.70
2019-03-24T05:23:53.851Z,9.70
2019-03-24T05:26:23.613Z,9.60
2019-03-24T05:28:53.252Z,9.60
2019-03-24T05:31:22.810Z,9.60
2019-03-24T05:33:51.963Z,9.60
2019-03-24T05:36:20.864Z,9.60
2019-03-24T05:38:49.920Z,9.60
2019-03-24T05:41:19.382Z,9.60
2019-03-24T05:43:48.018Z,9.60
2019-03-24T05:46:17.150Z,9.50
2019-03-24T05:48:46.724Z,9.70
2019-03-24T05:51:16.091Z,9.50
2019-03-24T05:53:44.843Z,9.50
2019-03-24T05:56:13.629Z,9.60
2019-03-24T05:58:42.307Z,9.50
2019-03-24T06:01:10.964Z,9.60
2019-03-24T06:03:39.617Z,9.60
2019-03-24T06:06:09.186Z,9.60
2019-03-24T06:08:37.955Z,9.50
2019-03-24T06:11:06.799Z,9.50
2019-03-24T06:13:36.030Z,9.50
2019-03-24T06:16:05.479Z,9.50
2019-03-24T06:18:35.166Z,9.50
2019-03-24T06:21:04.747Z,9.50
2019-03-24T06:23:33.843Z,9.40
2019-03-24T06:26:03.207Z,9.40
2019-03-24T06:28:32.814Z,9.40
2019-03-24T06:31:02.108Z,9.30
2019-03-24T06:33:31.937Z,9.30
2019-03-24T06:36:00.649Z,9.30
2019-03-24T06:38:29.264Z,9.20
2019-03-24T06:40:57.828Z,9.20
2019-03-24T06:43:26.748Z,9.40
2019-03-24T06:45:55.582Z,9.20
2019-03-24T06:48:25.510Z,9.20
2019-03-24T06:50:55.866Z,9.10
2019-03-24T06:53:25.546Z,9.10
2019-03-24T06:55:54.843Z,9.00
2019-03-24T06:58:24.395Z,9.00
2019-03-24T07:00:54.355Z,8.90
2019-03-24T07:03:28.115Z,8.90
2019-03-24T07:05:57.430Z,9.00
2019-03-24T07:08:26.664Z,8.90
2019-03-24T07:10:55.993Z,9.00
2019-03-24T07:13:25.719Z,9.00
2019-03-24T07:15:54.515Z,9.10
2019-03-24T07:18:23.135Z,9.10
2019-03-24T07:20:52.608Z,9.10
2019-03-24T07:23:25.018Z,9.10
2019-03-24T07:25:54.018Z,9.10
2019-03-24T07:28:24.824Z,9.30
2019-03-24T07:30:53.624Z,9.10
2019-03-24T07:33:22.730Z,9.10
2019-03-24T07:35:52.084Z,9.10
2019-03-24T07:38:21.366Z,9.10
2019-03-24T07:40:50.646Z,9.10
2019-03-24T07:43:19.848Z,9.10
2019-03-24T07:45:49.025Z,9.10
2019-03-24T07:48:19.244Z,9.10
2019-03-24T07:50:48.663Z,9.30
2019-03-24T07:53:18.033Z,9.20
2019-03-24T07:55:47.246Z,9.20
2019-03-24T07:58:16.564Z,9.20
2019-03-24T08:00:45.706Z,9.30
2019-03-24T08:03:14.796Z,9.30
2019-03-24T08:05:43.867Z,9.30
2019-03-24T08:08:12.627Z,9.10
2019-03-24T08:10:41.291Z,9.10
2019-03-24T08:13:09.961Z,9.40
2019-03-24T08:15:39.381Z,9.10
2019-03-24T08:18:08.292Z,9.30
2019-03-24T08:20:37.618Z,9.10
2019-03-24T08:23:07.074Z,9.10
2019-03-24T08:25:36.454Z,9.40
2019-03-24T08:28:05.795Z,9.20
2019-03-24T08:30:35.877Z,9.30
2019-03-24T08:33:05.634Z,9.10
2019-03-24T08:35:34.929Z,9.10
2019-03-24T08:38:04.195Z,9.10
2019-03-24T08:40:33.412Z,9.10
2019-03-24T08:43:02.934Z,9.30
2019-03-24T08:45:32.399Z,9.10
2019-03-24T08:48:01.819Z,9.10
2019-03-24T08:50:30.591Z,9.10
2019-03-24T08:52:59.239Z,9.10
2019-03-24T08:55:28.507Z,9.10
2019-03-24T08:57:57.361Z,9.10
2019-03-24T09:00:30.849Z,9.10
2019-03-24T09:02:57.195Z,9.30
2019-03-24T09:05:26.505Z,9.30
2019-03-24T09:07:55.699Z,9.00
2019-03-24T09:10:25.010Z,9.00
2019-03-24T09:12:54.547Z,9.00
2019-03-24T09:15:23.953Z,9.10
2019-03-24T09:17:52.968Z,9.10
2019-03-24T09:20:23.148Z,9.40
2019-03-24T09:22:52.516Z,9.10
2019-03-24T09:25:21.816Z,9.40
2019-03-24T09:27:51.335Z,9.30
2019-03-24T09:30:28.460Z,9.00
2019-03-24T09:32:58.069Z,9.00
2019-03-24T09:35:26.745Z,9.00
2019-03-24T09:37:55.496Z,9.00
2019-03-24T09:40:28.944Z,9.20
2019-03-24T09:42:59.417Z,9.10
2019-03-24T09:45:28.970Z,9.00
2019-03-24T09:47:58.402Z,9.10
2019-03-24T09:50:27.709Z,9.00
2019-03-24T09:52:56.894Z,9.00
2019-03-24T09:55:26.107Z,9.00
2019-03-24T09:57:56.917Z,8.90
2019-03-24T10:00:26.128Z,9.00
2019-03-24T10:02:55.337Z,9.00
2019-03-24T10:05:24.605Z,9.00
2019-03-24T10:07:53.830Z,9.30
2019-03-24T10:10:23.157Z,9.20
2019-03-24T10:12:52.430Z,8.90
2019-03-24T10:15:21.804Z,9.00
2019-03-24T10:17:50.464Z,9.00
2019-03-24T10:20:19.499Z,9.00
2019-03-24T10:22:48.262Z,9.00
2019-03-24T10:25:18.001Z,9.00
2019-03-24T10:27:46.669Z,8.90
2019-03-24T10:30:16.366Z,9.10
2019-03-24T10:32:45.493Z,8.90
2019-03-24T10:35:14.717Z,8.90
2019-03-24T10:37:44.090Z,8.90
2019-03-24T10:40:13.148Z,8.80
2019-03-24T10:42:42.259Z,8.80
2019-03-24T10:45:11.639Z,8.80
2019-03-24T10:47:41.984Z,9.00
2019-03-24T10:50:11.525Z,8.90
2019-03-24T10:52:40.835Z,8.70
2019-03-24T10:55:10.781Z,8.70
2019-03-24T10:57:41.934Z,8.60
2019-03-24T11:00:12.774Z,8.90
2019-03-24T11:02:42.339Z,8.50
2019-03-24T11:05:11.853Z,8.50
2019-03-24T11:07:41.555Z,8.60
2019-03-24T11:10:12.016Z,8.40
2019-03-24T11:12:41.186Z,8.60
2019-03-24T11:15:11.163Z,8.30
2019-03-24T11:17:40.354Z,8.30
2019-03-24T11:20:09.945Z,8.50
2019-03-24T11:22:39.305Z,8.30
2019-03-24T11:25:09.042Z,8.30
2019-03-24T11:27:38.385Z,8.20
2019-03-24T11:30:12.055Z,8.20
2019-03-24T11:32:41.899Z,8.20
2019-03-24T11:35:11.395Z,8.30
2019-03-24T11:37:42.183Z,8.20
2019-03-24T11:40:11.938Z,8.20
2019-03-24T11:42:41.114Z,8.30
2019-03-24T11:45:10.978Z,8.10
2019-03-24T11:47:39.737Z,8.00
2019-03-24T11:50:09.185Z,8.20
2019-03-24T11:52:37.956Z,8.20
2019-03-24T11:55:08.745Z,8.30
2019-03-24T11:57:37.835Z,8.20
2019-03-24T12:00:15.360Z,8.20
2019-03-24T12:02:44.972Z,8.60
2019-03-24T12:05:14.546Z,8.20
2019-03-24T12:07:44.091Z,8.60
2019-03-24T12:10:13.353Z,8.20
2019-03-24T12:12:43.471Z,8.20
2019-03-24T12:15:12.744Z,8.50
2019-03-24T12:17:41.951Z,8.40
2019-03-24T12:20:11.292Z,8.30
2019-03-24T12:22:40.701Z,8.30
2019-03-24T12:25:10.980Z,8.60
2019-03-24T12:27:39.988Z,8.30
2019-03-24T12:30:09.192Z,8.60
2019-03-24T12:32:37.955Z,8.60
2019-03-24T12:35:08.411Z,8.40
2019-03-24T12:37:37.290Z,8.50
2019-03-24T12:40:07.760Z,8.50
2019-03-24T12:42:37.244Z,8.30
2019-03-24T12:45:08.687Z,8.30
2019-03-24T12:47:37.782Z,8.50
2019-03-24T12:50:10.002Z,8.60
2019-03-24T12:52:39.487Z,8.60
2019-03-24T12:55:08.831Z,8.30
2019-03-24T12:57:38.126Z,8.30
2019-03-24T13:00:09.519Z,8.60
2019-03-24T13:02:38.974Z,8.60
2019-03-24T13:05:11.462Z,8.30
2019-03-24T13:07:40.699Z,8.60
2019-03-24T13:10:10.255Z,8.70
2019-03-24T13:12:39.027Z,8.30
2019-03-24T13:15:08.296Z,8.30
2019-03-24T13:17:37.167Z,8.50
2019-03-24T13:20:07.279Z,8.30
2019-03-24T13:22:36.450Z,8.30
2019-03-24T13:25:07.012Z,8.30
2019-03-24T13:27:36.312Z,8.50
2019-03-24T13:30:06.378Z,8.60
2019-03-24T13:32:35.491Z,8.20
2019-03-24T13:35:05.026Z,8.20
2019-03-24T13:37:35.091Z,8.30
2019-03-24T13:40:05.037Z,8.20
2019-03-24T13:42:34.468Z,7.90
2019-03-24T13:45:04.117Z,7.80
2019-03-24T13:47:33.577Z,7.80
2019-03-24T13:50:03.001Z,7.70
2019-03-24T13:52:32.376Z,7.70
2019-03-24T13:55:03.901Z,7.70
2019-03-24T13:57:33.150Z,7.60
2019-03-24T14:00:02.225Z,7.70
2019-03-24T14:02:30.988Z,7.60
2019-03-24T14:04:59.775Z,7.30
2019-03-24T14:07:28.432Z,7.40
2019-03-24T14:09:58.295Z,7.20
2019-03-24T14:12:27.429Z,7.20
2019-03-24T14:14:56.793Z,7.10
2019-03-24T14:17:26.221Z,7.10
2019-03-24T14:19:55.536Z,7.30
2019-03-24T14:22:24.802Z,7.10
2019-03-24T14:24:54.328Z,7.00
2019-03-24T14:27:24.015Z,6.90
2019-03-24T14:29:53.606Z,7.10
2019-03-24T14:32:22.897Z,6.90
2019-03-24T14:34:52.035Z,6.80
2019-03-24T14:37:21.412Z,6.70
2019-03-24T14:39:50.818Z,6.60
2019-03-24T14:42:20.329Z,6.70
2019-03-24T14:44:49.930Z,6.60
2019-03-24T14:47:18.497Z,6.60
2019-03-24T14:49:47.954Z,6.60
2019-03-24T14:52:16.697Z,6.50
2019-03-24T14:54:45.997Z,6.50
2019-03-24T14:57:15.237Z,6.30
2019-03-24T14:59:44.506Z,6.50
2019-03-24T15:02:13.880Z,6.80
2019-03-24T15:04:42.896Z,6.60
2019-03-24T15:07:13.142Z,6.60
2019-03-24T15:09:42.189Z,6.60
2019-03-24T15:12:11.322Z,6.60
2019-03-24T15:14:40.375Z,6.60
2019-03-24T15:17:10.094Z,7.10
2019-03-24T15:19:39.567Z,6.90
2019-03-24T15:22:08.823Z,7.20
2019-03-24T15:24:38.184Z,7.70
2019-03-24T15:27:07.084Z,7.80
2019-03-24T15:29:35.728Z,8.30
2019-03-24T15:32:04.487Z,8.60
2019-03-24T15:34:33.909Z,9.00
2019-03-24T15:37:03.059Z,9.30
2019-03-24T15:39:33.204Z,9.60
2019-03-24T15:42:02.688Z,10.00
2019-03-24T15:44:32.080Z,10.40
2019-03-24T15:47:01.441Z,10.70
2019-03-24T15:49:30.390Z,11.20
2019-03-24T15:51:59.596Z,11.90
2019-03-24T15:54:29.478Z,12.40
2019-03-24T15:56:58.979Z,13.00
2019-03-24T15:59:28.329Z,13.70
2019-03-24T16:01:57.458Z,14.00
2019-03-24T16:04:26.767Z,14.30
2019-03-24T16:06:56.357Z,14.70
2019-03-24T16:09:27.095Z,15.00
2019-03-24T16:11:55.854Z,15.30
2019-03-24T16:14:24.689Z,15.70
2019-03-24T16:16:53.259Z,16.10
2019-03-24T16:19:22.029Z,16.10
2019-03-24T16:21:51.339Z,15.50
2019-03-24T16:24:21.090Z,15.40
2019-03-24T16:26:50.415Z,15.50
2019-03-24T16:29:19.723Z,15.30
2019-03-24T16:31:48.859Z,15.30
2019-03-24T16:34:17.995Z,15.40
2019-03-24T16:36:47.275Z,15.40
2019-03-24T16:39:16.717Z,15.40
2019-03-24T16:41:46.025Z,15.30
2019-03-24T16:44:15.089Z,15.40
2019-03-24T16:46:44.583Z,15.60
2019-03-24T16:49:14.718Z,16.10
2019-03-24T16:51:44.322Z,16.80
2019-03-24T16:54:13.871Z,17.70
2019-03-24T16:56:42.532Z,18.10
2019-03-24T16:59:11.396Z,19.20
2019-03-24T17:01:40.158Z,20.30
2019-03-24T17:04:09.179Z,21.70
2019-03-24T17:06:37.814Z,22.80
2019-03-24T17:09:07.644Z,23.60
2019-03-24T17:11:37.205Z,23.30
2019-03-24T17:14:06.705Z,23.70
2019-03-24T17:16:36.221Z,24.50
2019-03-24T17:19:05.837Z,24.90
2019-03-24T17:21:35.178Z,23.70
2019-03-24T17:24:04.354Z,23.50
2019-03-24T17:26:34.342Z,22.60
2019-03-24T17:29:03.383Z,23.10
2019-03-24T17:31:32.455Z,24.00
2019-03-24T17:34:02.422Z,24.60
2019-03-24T17:36:31.669Z,23.40
2019-03-24T17:39:00.334Z,22.70
2019-03-24T17:41:29.825Z,21.60
2019-03-24T17:44:03.072Z,20.80
2019-03-24T17:46:29.954Z,20.20
2019-03-24T17:49:00.707Z,20.10
2019-03-24T17:51:30.145Z,19.90
2019-03-24T17:53:59.232Z,20.40
2019-03-24T17:56:29.087Z,20.40
2019-03-24T17:58:58.773Z,20.60
2019-03-24T18:01:28.278Z,20.50
2019-03-24T18:03:57.738Z,20.80
2019-03-24T18:06:27.184Z,20.50
2019-03-24T18:08:56.676Z,20.90
2019-03-24T18:11:25.979Z,21.30
2019-03-24T18:13:55.060Z,21.50
2019-03-24T18:16:24.729Z,21.30
2019-03-24T18:18:53.909Z,21.20
2019-03-24T18:21:23.083Z,21.00
2019-03-24T18:23:52.729Z,21.10
2019-03-24T18:26:21.586Z,21.40
2019-03-24T18:28:50.231Z,21.40
2019-03-24T18:31:18.982Z,21.40
2019-03-24T18:33:48.653Z,22.10
2019-03-24T18:36:18.643Z,22.60
2019-03-24T18:38:49.111Z,22.40
2019-03-24T18:41:18.324Z,23.00
2019-03-24T18:43:48.513Z,22.60
2019-03-24T18:46:18.689Z,22.20
2019-03-24T18:48:50.714Z,21.40
2019-03-24T18:51:19.877Z,21.10
2019-03-24T18:53:48.908Z,21.00
2019-03-24T18:56:19.607Z,21.60
2019-03-24T18:58:48.965Z,21.70
2019-03-24T19:01:18.472Z,21.80
2019-03-24T19:03:47.522Z,22.10
2019-03-24T19:06:17.139Z,22.70
2019-03-24T19:08:46.529Z,23.10
2019-03-24T19:11:15.794Z,22.20
2019-03-24T19:13:45.499Z,21.90
2019-03-24T19:16:14.179Z,21.20
2019-03-24T19:18:43.826Z,21.50
2019-03-24T19:21:13.242Z,21.80
2019-03-24T19:23:42.712Z,21.90
2019-03-24T19:26:11.961Z,21.60
2019-03-24T19:28:41.010Z,22.00
2019-03-24T19:31:10.058Z,22.30
2019-03-24T19:33:39.611Z,22.40
2019-03-24T19:36:09.012Z,22.50
2019-03-24T19:38:38.897Z,22.70
2019-03-24T19:41:08.998Z,23.10
2019-03-24T19:43:39.812Z,24.10
2019-03-24T19:46:09.176Z,24.70
2019-03-24T19:48:38.366Z,25.20
2019-03-24T19:51:07.842Z,25.40
2019-03-24T19:53:38.126Z,24.20
2019-03-24T19:56:07.349Z,23.90
2019-03-24T19:58:36.078Z,23.50
2019-03-24T20:01:04.957Z,23.00
2019-03-24T20:03:34.277Z,22.80
2019-03-24T20:06:03.755Z,22.50
2019-03-24T20:08:33.259Z,22.40
2019-03-24T20:11:02.549Z,22.00
2019-03-24T20:13:32.193Z,21.70
2019-03-24T20:16:01.308Z,21.80
2019-03-24T20:18:30.444Z,21.70
2019-03-24T20:20:59.512Z,21.40
2019-03-24T20:23:29.580Z,21.00
2019-03-24T20:25:58.763Z,21.00
2019-03-24T20:28:27.918Z,20.50
2019-03-24T20:30:57.173Z,20.10
2019-03-24T20:33:26.414Z,19.30
2019-03-24T20:35:56.476Z,18.40
2019-03-24T20:38:26.054Z,18.30
2019-03-24T20:40:55.596Z,18.20
2019-03-24T20:43:24.235Z,18.20
2019-03-24T20:45:52.869Z,18.00
2019-03-24T20:48:21.855Z,18.00
2019-03-24T20:50:51.156Z,17.80
2019-03-24T20:53:20.208Z,17.70
2019-03-24T20:55:50.601Z,17.60
2019-03-24T20:58:19.792Z,17.80
2019-03-24T21:00:49.337Z,17.50
2019-03-24T21:03:18.619Z,17.10
2019-03-24T21:05:47.573Z,17.00
2019-03-24T21:08:17.633Z,16.90
2019-03-24T21:10:47.021Z,16.70
2019-03-24T21:13:16.361Z,16.40
2019-03-24T21:15:45.620Z,16.40
2019-03-24T21:18:14.930Z,16.30
2019-03-24T21:20:43.571Z,16.60
2019-03-24T21:23:12.287Z,17.00
2019-03-24T21:25:40.852Z,17.10
2019-03-24T21:28:09.837Z,17.30
2019-03-24T21:30:40.179Z,17.20
2019-03-24T21:33:09.266Z,16.90
2019-03-24T21:35:38.340Z,16.60
2019-03-24T21:38:08.341Z,16.60
2019-03-24T21:40:37.570Z,16.60
2019-03-24T21:43:06.874Z,16.50
2019-03-24T21:45:36.299Z,16.50
2019-03-24T21:48:06.021Z,16.60
2019-03-24T21:50:35.804Z,16.50
2019-03-24T21:53:06.103Z,16.40
2019-03-24T21:55:35.243Z,16.40
2019-03-24T21:58:04.409Z,16.40
2019-03-24T22:00:35.045Z,16.60
2019-03-24T22:03:04.885Z,16.80
2019-03-24T22:05:33.622Z,16.90
2019-03-24T22:08:02.251Z,16.90
2019-03-24T22:10:31.017Z,16.80
2019-03-24T22:13:01.103Z,16.70
2019-03-24T22:15:30.540Z,16.40
2019-03-24T22:17:59.845Z,16.20
2019-03-24T22:20:29.413Z,16.20
2019-03-24T22:22:58.511Z,16.10
2019-03-24T22:25:27.864Z,15.90
2019-03-24T22:27:57.085Z,15.90
2019-03-24T22:30:29.213Z,15.80
2019-03-24T22:32:59.118Z,15.70
2019-03-24T22:35:27.743Z,15.70
2019-03-24T22:37:56.297Z,15.70
2019-03-24T22:40:24.968Z,15.80
2019-03-24T22:42:53.608Z,15.90
2019-03-24T22:45:22.816Z,16.00
2019-03-24T22:47:52.056Z,16.00
2019-03-24T22:50:20.818Z,16.00
2019-03-24T22:52:49.473Z,16.00
2019-03-24T22:55:19.205Z,15.90
2019-03-24T22:57:47.976Z,15.90
2019-03-24T23:00:19.007Z,15.90
2019-03-24T23:02:48.353Z,15.90
2019-03-24T23:05:17.835Z,15.80
2019-03-24T23:07:46.482Z,15.70
2019-03-24T23:10:15.110Z,15.70
2019-03-24T23:12:43.947Z,15.70
2019-03-24T23:15:13.428Z,15.80
2019-03-24T23:17:43.596Z,15.80
2019-03-24T23:20:12.827Z,15.80
2019-03-24T23:22:42.827Z,15.80
2019-03-24T23:25:12.841Z,15.90
2019-03-24T23:27:42.218Z,15.90
2019-03-24T23:30:11.680Z,15.90
2019-03-24T23:32:40.915Z,15.90
2019-03-24T23:35:09.765Z,15.80
2019-03-24T23:37:38.534Z,15.80
2019-03-24T23:40:07.800Z,15.70
2019-03-24T23:42:36.650Z,15.70
2019-03-24T23:45:09.124Z,15.60
2019-03-24T23:47:37.790Z,15.70
2019-03-24T23:50:06.740Z,15.60
2019-03-24T23:52:35.398Z,15.60
2019-03-24T23:55:04.232Z,15.60
2019-03-24T23:57:32.876Z,15.60
